Riverside, WA (98849)

3:32 AM PDT on August 22, 2014 (GMT -0700)
Omak | Change Station
CLOSE
Current Station
Airport
Location: Omak,
Elevation: 1302 ft
Nearby Weather Stations
Active Advisory: Flash Flood Watch

Elev 1302 ft 48.46 °N, 119.52 °W | Updated 39 minutes ago

Clear
Clear
56 °F
Feels Like 56 °F
N
12
Wind Variable Wind from NW

Today
High -- | Low -- °F
--% Chance of Precip.
Yesterday
High -- | Low -- °F
Precip. -- in
6:01 AM 7:59 PM
Waning Crescent, 9% visible
Pressure 29.98 in
Visibility 10.0 miles
Clouds Clear
Dew Point 52 °F
Humidity 87%
Rainfall 0.00 in
Snow Depth Not available.
UV 0 out of 12
Pollen 5.60 out of 12
Air Quality Not available.
Flu Activity Not available.
METAR KOMK 220953Z AUTO 32010KT 10SM CLR 13/11 A2999 RMK AO2 SLP151 T01330111

More Conditions Fewer Conditions

Pressure 29.98 in
Visibility 10.0 miles
Clouds Clear
Dew Point 52 °F
Humidity 87%
Rainfall 0.00 in
Snow Depth Not available.
UV 0 out of 12
Pollen 5.60 out of 12
Air Quality Not available.
Flu Activity Not available.
METAR KOMK 220953Z AUTO 32010KT 10SM CLR 13/11 A2999 RMK AO2 SLP151 T01330111

More Conditions Fewer Conditions

10-Day Weather Forecast

Almanac

Astronomy

Aug. 22, 2014 Rise Set
Actual Time 6:01 AM PDT 7:59 PM PDT
Civil Twilight 5:28 AM PDT 8:33 PM PDT
Nautical Twilight 4:46 AM PDT 9:14 PM PDT
Astronomical Twilight 4:00 AM PDT 10:00 PM PDT
Moon 3:23 AM PDT 6:15 PM PDT
Length of Visible Light 15h 04m
Length of Day
13h 57m
Tomorrow will be 3m 19s shorter.
Waning Crescent, 9% of the Moon is Illuminated
Today
Waning Crescent
Aug 25
New
Sep 2
First Quarter
Sep 8
Full
Sep 15
Last Quarter

Today's Extremes

State Highs State Lows

Community

WunderPhotos

Upload Photos

1,746,149 photos uploaded!

Nearby

Snow Depth

Station Depth Elevation
Moses Mountain 1 in 5300 ft
Harts Pass 0 in 6500 ft
Rainy Pass 0 in 4780 ft
Sentinel Butte 0 in 4920 ft
Lyman Lake 0 in 5900 ft

Earthquake Activity

City Distance Mag. Time & Date
No recent earthquake activity has been reported nearby.
Minimum magnitude displayed is 2.5.

Coastal Water Temperatures

Place Temperature
No Stations Reporting

Nearby Weather Stations